Latest Weather Observations for Grafton AgRS

IDN60801

Issued at 7:32 pm EST Sunday 20 August 2017 (issued every 30 minutes, with the page automatically refreshed every 10 minutes)

About weather observations | Map of weather stations | Latest weather observations for NSW | Other Formats
Station Details ID: 058077 Name: GRAFTON RESEARCH STN Lat: -29.62 Lon: 152.96 Height: 25.0 m
Data from the previous 72 hours. | See also: Recent months for locations in New South Wales
Date/Time
EST
Temp
°C
App
Temp
°C
Dew
Point
°C
Rel
Hum
%
Delta-T
°C
Wind Press
QNH
hPa
Press
MSL
hPa
Rain since
9am
mm
Dir  Spd
km/h
Gust
km/h
Spd
kts
Gust
kts
20/07:30pm 12.6 9.1 5.5 62 3.3 SE 13 17 7 9 - - 0.0
20/07:00pm 12.8 8.5 5.2 60 3.5 SE 17 20 9 11 - - 0.0
20/06:30pm 13.7 10.9 5.1 56 4.0 SE 9 13 5 7 - - 0.0
20/06:00pm 13.9 9.5 5.0 55 4.1 SE 17 20 9 11 - - 0.0
20/05:30pm 15.1 10.2 5.0 51 4.8 SE 20 30 11 16 - - 0.0
20/05:00pm 15.9 10.9 4.6 47 5.3 SSE 20 26 11 14 - - 0.0
20/04:30pm 17.1 11.0 4.8 44 5.9 SSE 26 33 14 18 - - 0.0
20/04:00pm 17.8 11.8 5.4 44 6.0 SSE 26 35 14 19 - - 0.0
20/03:30pm 18.6 12.4 4.4 39 6.8 SSE 26 35 14 19 - - 0.0
20/03:00pm 19.6 14.4 5.3 39 7.0 SSE 22 30 12 16 - - 0.0
20/02:30pm 19.4 14.5 5.1 39 7.0 SSE 20 28 11 15 - - 0.0
20/02:00pm 19.0 13.4 3.6 36 7.3 S 22 32 12 17 - - 0.0
20/01:30pm 19.2 13.1 4.9 39 6.9 SSE 26 41 14 22 - - 0.0
20/01:00pm 19.0 12.9 4.7 39 6.9 SSE 26 39 14 21 - - 0.0
20/12:30pm 19.1 14.1 4.5 38 7.0 SSE 20 30 11 16 - - 0.0
20/12:00pm 18.5 13.6 5.0 41 6.5 S 20 32 11 17 - - 0.0
20/11:30am 18.2 13.2 4.7 41 6.5 SSW 20 33 11 18 - - 0.0
20/11:00am 17.5 12.6 4.1 41 6.3 S 19 30 10 16 - - 0.0
20/10:30am 16.5 11.9 3.9 43 5.9 S 17 30 9 16 - - 0.0
20/10:00am 15.7 11.2 4.1 46 5.4 SSW 17 28 9 15 - - 0.0
20/09:30am 14.9 9.9 3.7 47 5.1 WSW 19 26 10 14 - - 0.0
20/09:00am 13.5 8.6 2.1 46 5.0 WNW 17 24 9 13 - - 0.0
20/08:30am 12.1 6.6 2.0 50 4.3 W 20 28 11 15 - - 0.0
20/08:00am 10.6 6.4 1.4 53 3.8 W 13 17 7 9 - - 0.0
20/07:30am 9.0 4.3 1.2 58 3.2 W 15 19 8 10 - - 0.0
20/07:00am 6.7 2.7 0.8 66 2.3 W 11 15 6 8 - - 0.0
20/06:30am 6.5 2.0 0.0 63 2.5 W 13 17 7 9 - - 0.0
20/06:00am 6.0 1.6 0.1 66 2.3 W 13 17 7 9 - - 0.0
20/05:30am 6.8 2.3 -0.2 61 2.7 W 13 17 7 9 - - 0.0
20/05:00am 7.0 2.9 0.0 61 2.7 W 11 15 6 8 - - 0.0
20/04:30am 6.1 2.3 -0.4 63 2.5 W 9 13 5 7 - - 0.0
20/04:00am 6.1 1.9 -0.8 61 2.6 WSW 11 13 6 7 - - 0.0
20/03:30am 7.1 2.5 -0.8 57 3.0 WSW 13 17 7 9 - - 0.0
20/03:00am 7.4 2.8 -1.0 55 3.2 WSW 13 17 7 9 - - 0.0
20/02:30am 7.3 2.4 -0.4 58 3.0 WSW 15 17 8 9 - - 0.0
20/02:00am 6.5 2.3 -0.9 59 2.8 WSW 11 13 6 7 - - 0.0
20/01:30am 8.0 4.5 -1.5 51 3.6 W 7 9 4 5 - - 0.0
20/01:00am 8.0 5.8 -1.2 52 3.5 CALM 0 0 0 0 - - 0.0
20/12:30am 8.0 5.8 -1.2 52 3.5 CALM 0 0 0 0 - - 0.0
20/12:00am 8.0 4.5 -1.5 51 3.6 SE 7 11 4 6 - - 0.0
 
Date/Time
EST
Temp
°C
App
Temp
°C
Dew
Point
°C
Rel
Hum
%
Delta-T
°C
Wind Press
QNH
hPa
Press
MSL
hPa
Rain since
9am
mm
Dir  Spd
km/h
Gust
km/h
Spd
kts
Gust
kts
19/11:30pm 10.1 5.0 -2.2 42 4.7 W 15 20 8 11 - - 0.0
19/11:00pm 10.2 5.5 -2.1 42 4.7 W 13 20 7 11 - - 0.0
19/10:30pm 9.7 5.4 -1.9 44 4.4 W 11 15 6 8 - - 0.0
19/10:00pm 9.7 5.7 -2.3 43 4.6 WSW 9 11 5 6 - - 0.0
19/09:30pm 10.5 6.5 -2.5 40 5.0 WSW 9 11 5 6 - - 0.0
19/09:00pm 11.3 6.9 -2.5 38 5.3 WSW 11 15 6 8 - - 0.0
19/08:30pm 12.1 6.5 -3.3 34 5.9 W 17 24 9 13 - - 0.0
19/08:00pm 12.5 7.2 -3.7 32 6.1 W 15 20 8 11 - - 0.0
19/07:30pm 13.1 7.5 -3.2 32 6.3 WSW 17 24 9 13 - - 0.0
19/07:00pm 13.8 7.5 -3.9 29 6.8 WSW 20 28 11 15 - - 0.0
19/06:30pm 13.9 8.2 -3.8 29 6.8 WSW 17 24 9 13 - - 0.0
19/06:00pm 14.9 8.5 -4.9 25 7.5 WSW 20 35 11 19 - - 0.0
19/05:30pm 15.4 8.2 -5.6 23 7.9 WSW 24 33 13 18 - - 0.0
19/05:00pm 16.8 8.7 -6.3 20 8.7 WSW 28 41 15 22 - - 0.0
19/04:30pm 17.3 11.0 -4.0 23 8.5 SW 20 35 11 19 - - 0.0
19/04:00pm 18.1 10.6 -4.5 21 8.9 SW 26 37 14 20 - - 0.0
19/03:30pm 18.5 10.5 -6.2 18 9.5 SW 28 39 15 21 - - 0.0
19/03:00pm 19.0 11.1 -5.1 19 9.5 SW 28 41 15 22 - - 0.0
19/02:30pm 19.2 11.4 -3.6 21 9.3 SW 28 39 15 21 - - 0.0
19/02:00pm 19.3 11.8 -4.2 20 9.5 SW 26 43 14 23 - - 0.0
19/01:50pm 19.0 10.5 -6.6 17 9.8 SW 30 48 16 26 - - 0.0
19/01:30pm 19.5 12.1 -3.4 21 9.4 SW 26 48 14 26 - - 0.0
19/01:18pm 18.9 10.5 -5.9 18 9.6 WSW 30 48 16 26 - - 0.0
19/01:00pm 19.1 11.4 -3.1 22 9.1 WSW 28 41 15 22 - - 0.0
19/12:30pm 18.3 10.0 -5.0 20 9.1 SW 30 44 16 24 - - 0.0
19/12:00pm 18.0 9.7 -4.6 21 8.9 SW 30 46 16 25 - - 0.0
19/11:41am 17.6 9.9 -3.2 24 8.4 SW 28 46 15 25 - - 0.0
19/11:30am 17.4 8.7 -3.4 24 8.4 WSW 33 43 18 23 - - 0.0
19/11:11am 17.2 8.7 -3.0 25 8.2 WSW 32 50 17 27 - - 0.0
19/11:00am 17.4 9.5 -1.8 27 8.0 WSW 30 44 16 24 - - 0.0
19/10:30am 16.6 8.7 -1.5 29 7.5 WSW 30 41 16 22 - - 0.0
19/10:00am 15.5 7.2 -1.5 31 7.0 SW 32 46 17 25 - - 0.0
19/09:30am 14.9 7.4 -1.2 33 6.6 WSW 28 43 15 23 - - 0.0
19/09:00am 14.2 6.8 -1.0 35 6.2 WSW 28 41 15 22 - - 0.0
19/08:45am 13.8 6.4 -1.0 36 6.0 WSW 28 46 15 25 - - 0.0
19/08:30am 13.3 5.5 -1.1 37 5.8 WSW 30 46 16 25 - - 0.0
19/08:00am 12.7 4.0 -0.2 41 5.3 WSW 35 54 19 29 - - 0.0
19/07:30am 11.9 4.1 -0.6 42 5.1 WSW 30 48 16 26 - - 0.0
19/07:12am 11.6 3.4 -1.2 41 5.1 WSW 32 50 17 27 - - 0.0
19/07:00am 11.5 3.1 -0.9 42 5.0 WSW 33 46 18 25 - - 0.0
19/06:34am 11.3 3.8 -1.1 42 4.9 WSW 28 46 15 25 - - 0.0
19/06:30am 11.1 4.0 -1.0 43 4.8 WSW 26 41 14 22 - - 0.0
19/06:00am 11.1 4.0 -1.6 41 5.0 WSW 26 35 14 19 - - 0.0
19/05:30am 11.3 4.1 -1.8 40 5.1 WSW 26 41 14 22 - - 0.0
19/05:00am 11.6 4.0 -1.9 39 5.3 W 28 41 15 22 - - 0.0
19/04:30am 11.6 4.8 -1.5 40 5.2 WSW 24 35 13 19 - - 0.0
19/04:00am 11.9 5.5 -1.9 38 5.4 WSW 22 33 12 18 - - 0.0
19/03:36am 12.3 4.7 -2.3 36 5.7 WSW 28 46 15 25 - - 0.0
19/03:30am 12.6 5.8 -2.1 36 5.8 WSW 24 46 13 25 - - 0.0
19/03:00am 12.3 5.4 -2.3 36 5.7 W 24 35 13 19 - - 0.0
19/02:30am 12.5 5.6 -2.5 35 5.8 WSW 24 39 13 21 - - 0.0
19/02:00am 13.1 5.0 -2.8 33 6.2 WSW 30 43 16 23 - - 0.0
19/01:30am 12.9 6.4 -2.2 35 5.9 WSW 22 41 12 22 - - 0.0
19/01:00am 13.3 7.2 -2.6 33 6.2 WSW 20 35 11 19 - - 0.0
19/12:30am 13.2 7.1 -2.7 33 6.2 WSW 20 37 11 20 - - 0.0
19/12:00am 13.2 7.2 -2.7 33 6.2 WSW 19 32 10 17 - - 0.0
 
Date/Time
EST
Temp
°C
App
Temp
°C
Dew
Point
°C
Rel
Hum
%
Delta-T
°C
Wind Press
QNH
hPa
Press
MSL
hPa
Rain since
9am
mm
Dir  Spd
km/h
Gust
km/h
Spd
kts
Gust
kts
18/11:30pm 13.6 8.9 -1.9 34 6.2 W 13 22 7 12 - - 0.0
18/11:00pm 13.5 8.8 -2.0 34 6.2 W 13 20 7 11 - - 0.0
18/10:30pm 13.8 9.2 -1.4 35 6.2 WSW 13 20 7 11 - - 0.0
18/10:00pm 14.4 9.7 -2.1 32 6.6 WSW 13 22 7 12 - - 0.0
18/09:30pm 15.3 9.2 -2.2 30 7.1 W 20 33 11 18 - - 0.0
18/09:00pm 15.6 9.6 -1.9 30 7.1 WSW 20 32 11 17 - - 0.0
18/08:30pm 16.3 8.7 -2.2 28 7.5 WSW 28 41 15 22 - - 0.0
18/08:00pm 16.4 10.3 -2.6 27 7.7 W 20 32 11 17 - - 0.0
18/07:30pm 17.1 9.8 -3.1 25 8.2 WSW 26 43 14 23 - - 0.0
18/07:25pm 17.2 9.5 -3.0 25 8.2 WSW 28 44 15 24 - - 0.0
18/07:00pm 16.6 11.6 -1.5 29 7.5 W 15 20 8 11 - - 0.0
18/06:30pm 16.7 11.7 -0.9 30 7.4 W 15 26 8 14 - - 0.0
18/06:00pm 18.3 11.6 -1.0 27 8.2 W 24 37 13 20 - - 0.0
18/05:30pm 19.0 12.3 -0.9 26 8.6 W 24 39 13 21 - - 0.0
18/05:00pm 20.1 14.4 -0.5 25 9.0 W 19 30 10 16 - - 0.0
18/04:30pm 21.2 15.1 -2.6 20 10.1 WSW 20 30 11 16 - - 0.0
18/04:00pm 22.1 14.0 -3.3 18 10.7 WSW 30 46 16 25 - - 0.0
18/03:30pm 22.7 14.0 -3.6 17 11.1 WSW 33 54 18 29 - - 0.0
18/03:11pm 23.0 14.5 -3.3 17 11.2 WSW 32 50 17 27 - - 0.0
18/03:00pm 22.9 13.0 -4.2 16 11.3 W 39 56 21 30 - - 0.0
18/02:30pm 23.3 14.8 -1.6 19 11.0 WSW 33 52 18 28 - - 0.0
18/02:00pm 23.5 15.4 -0.1 21 10.7 W 32 52 17 28 - - 0.0
18/01:56pm 23.5 16.0 -1.4 19 11.0 WNW 28 52 15 28 - - 0.0
18/01:30pm 23.6 15.4 -1.3 19 11.1 W 32 48 17 26 - - 0.0
18/01:06pm 23.9 16.5 -0.4 20 11.0 W 28 46 15 25 - - 0.0
18/01:00pm 23.5 15.8 -0.1 21 10.7 W 30 46 16 25 - - 0.0
18/12:30pm 23.2 15.0 0.3 22 10.5 W 33 50 18 27 - - 0.0
18/12:22pm 23.1 15.7 -0.4 21 10.6 W 28 50 15 27 - - 0.0
18/12:00pm 23.1 16.7 0.9 23 10.2 W 24 35 13 19 - - 0.0
18/11:30am 23.5 18.0 1.8 24 10.2 W 20 35 11 19 - - 0.0
18/11:00am 22.6 14.3 -0.2 22 10.3 W 33 61 18 33 - - 0.0
18/10:50am 22.5 15.1 -0.9 21 10.4 W 28 46 15 25 - - 0.0
18/10:30am 22.2 15.8 0.7 24 9.8 W 24 32 13 17 - - 0.0
18/10:00am 21.6 14.6 1.8 27 9.2 W 28 37 15 20 - - 0.0
18/09:30am 21.2 14.3 -0.1 24 9.5 W 26 37 14 20 - - 0.0
18/09:00am 20.5 13.9 -0.2 25 9.2 W 24 44 13 24 - - 0.2
18/08:30am 20.1 13.9 0.0 26 8.9 W 22 35 12 19 - - -
18/08:00am 19.4 14.2 -0.1 27 8.6 WNW 17 26 9 14 - - -
18/07:30am 18.3 13.0 -0.5 28 8.1 WNW 17 24 9 13 - - -
18/07:00am 16.0 11.2 0.2 34 6.8 NW 15 24 8 13 - - -
18/06:30am 15.5 11.7 -1.1 32 6.9 NNW 9 17 5 9 - - -
18/06:00am 15.1 11.6 -1.5 32 6.8 N 7 13 4 7 - - -
18/05:30am 15.0 10.8 -1.1 33 6.6 NNW 11 17 6 9 - - -
18/05:00am 16.1 12.3 -1.0 31 7.1 NNW 9 15 5 8 - - -
18/04:30am 15.9 11.7 -0.8 32 7.0 NNW 11 15 6 8 - - -
18/04:00am 16.8 13.0 -0.9 30 7.5 NNW 9 19 5 10 - - -
18/03:30am 16.6 13.2 -0.6 31 7.3 NNW 7 13 4 7 - - -
18/03:00am 17.4 13.7 0.1 31 7.5 NNW 9 13 5 7 - - 0.0
18/02:30am 17.6 13.6 0.3 31 7.5 NW 11 15 6 8 - - -
18/02:00am 16.9 12.9 0.5 33 7.1 WNW 11 17 6 9 - - -
18/01:30am 17.5 12.8 1.1 33 7.3 NW 15 20 8 11 - - -
18/01:00am 18.1 13.1 1.6 33 7.4 WNW 17 20 9 11 - - -
18/12:30am 16.9 12.4 2.1 37 6.7 WNW 15 19 8 10 - - -
18/12:00am 16.8 12.4 2.8 39 6.4 W 15 17 8 9 - - -
 
Date/Time
EST
Temp
°C
App
Temp
°C
Dew
Point
°C
Rel
Hum
%
Delta-T
°C
Wind Press
QNH
hPa
Press
MSL
hPa
Rain since
9am
mm
Dir  Spd
km/h
Gust
km/h
Spd
kts
Gust
kts
17/11:30pm 17.4 12.7 3.0 38 6.6 WNW 17 20 9 11 - - -
17/11:00pm 17.5 13.2 3.0 38 6.7 WNW 15 20 8 11 - - -
17/10:30pm 17.4 13.7 2.6 37 6.7 WNW 11 15 6 8 - - -
17/10:00pm 18.0 14.3 2.3 35 7.1 NNW 11 15 6 8 - - -
17/09:30pm 18.9 14.8 2.3 33 7.6 NW 13 17 7 9 - - -
17/09:00pm 20.1 15.1 1.5 29 8.5 NW 17 26 9 14 - - 0.0
17/08:30pm 19.8 15.9 1.3 29 8.4 NW 11 20 6 11 - - -
17/08:00pm 19.9 15.7 1.8 30 8.3 NW 13 19 7 10 - - -

Other Formats:

Comma delimited format used in spreadsheet applications
http://www.bom.gov.au/fwo/IDN60801/IDN60801.95571.axf

JavaScript Object Notation format (JSON) in row-major order
http://www.bom.gov.au/fwo/IDN60801/IDN60801.95571.json